Time;durP1;ratioP1;P1;durP2;ratioP2;P2;SDS_P1;SDS_P2;PMS_P1;PMS_P2;Temp;Humidity;BMP_temperature;BMP_pressure;BME280_temperature;BME280_humidity;BME280_pressure;Samples;Min_cycle;Max_cycle;Signal;HPM_P1;HPM_P2
2023/11/05 00:01:58;;;;;;;2.60;0.60;;;11.60;99.90;;;;;;5078737;28;20224;-60
2023/11/05 00:04:26;;;;;;;0.83;0.40;;;11.70;99.90;;;;;;5079197;28;20216;-60
2023/11/05 00:06:53;;;;;;;0.50;0.30;;;11.80;99.90;;;;;;5084457;28;20227;-60
2023/11/05 00:09:20;;;;;;;0.60;0.30;;;11.80;99.90;;;;;;5085599;28;20212;-59
2023/11/05 00:11:47;;;;;;;0.87;0.47;;;11.80;99.90;;;;;;5081833;28;20208;-59
2023/11/05 00:14:13;;;;;;;0.93;0.40;;;11.80;99.90;;;;;;5082193;28;20211;-60
2023/11/05 00:16:40;;;;;;;0.93;0.40;;;11.70;99.90;;;;;;5084609;28;20236;-59
2023/11/05 00:19:08;;;;;;;0.43;0.30;;;11.70;99.90;;;;;;5085487;28;20208;-59
2023/11/05 00:21:36;;;;;;;0.23;0.20;;;11.70;99.90;;;;;;5083415;28;20281;-60
2023/11/05 00:24:03;;;;;;;0.47;0.30;;;11.70;99.90;;;;;;5082093;28;20583;-59
2023/11/05 00:26:30;;;;;;;0.33;0.17;;;11.70;99.90;;;;;;5083200;28;20729;-59
2023/11/05 00:28:57;;;;;;;0.53;0.40;;;11.60;99.90;;;;;;5085479;28;20242;-59
2023/11/05 00:31:24;;;;;;;1.03;0.37;;;11.60;99.90;;;;;;5084813;28;20696;-59
2023/11/05 00:33:51;;;;;;;0.40;0.23;;;11.50;99.90;;;;;;5081527;28;20652;-59
2023/11/05 00:36:18;;;;;;;0.23;0.23;;;11.50;99.90;;;;;;5081488;28;20713;-59
2023/11/05 00:38:46;;;;;;;1.77;0.50;;;11.60;99.90;;;;;;5084599;28;20219;-59
2023/11/05 00:41:13;;;;;;;0.47;0.30;;;11.50;99.90;;;;;;5085339;28;20215;-59
2023/11/05 00:43:40;;;;;;;2.20;0.50;;;11.50;99.90;;;;;;5082219;28;20231;-59
2023/11/05 00:46:07;;;;;;;0.60;0.40;;;11.50;99.90;;;;;;5081649;28;20268;-60
2023/11/05 00:48:33;;;;;;;1.43;0.43;;;11.50;99.90;;;;;;5083040;28;20237;-58
2023/11/05 00:51:00;;;;;;;0.70;0.30;;;11.50;99.90;;;;;;5084930;28;20295;-59
2023/11/05 00:53:27;;;;;;;0.70;0.40;;;11.40;99.90;;;;;;5076365;28;20662;-59
2023/11/05 00:55:55;;;;;;;1.33;0.40;;;11.40;99.90;;;;;;5085282;28;20241;-59
2023/11/05 00:58:22;;;;;;;1.23;0.40;;;11.40;99.90;;;;;;5085076;28;20212;-59
2023/11/05 01:00:48;;;;;;;1.27;0.23;;;11.30;99.90;;;;;;5081482;28;20207;-59
2023/11/05 01:03:15;;;;;;;0.73;0.40;;;11.20;99.90;;;;;;5081026;28;20228;-60
2023/11/05 01:05:42;;;;;;;0.50;0.20;;;11.30;99.90;;;;;;5083755;28;20794;-59
2023/11/05 01:08:09;;;;;;;0.93;0.50;;;11.30;99.90;;;;;;5084724;28;20677;-59
2023/11/05 01:10:35;;;;;;;0.50;0.30;;;11.30;99.90;;;;;;5082841;28;20208;-59
2023/11/05 01:13:03;;;;;;;1.50;0.40;;;11.20;99.90;;;;;;5080982;28;20597;-59
2023/11/05 01:15:31;;;;;;;0.93;0.27;;;11.20;99.90;;;;;;5082156;28;20232;-58
2023/11/05 01:17:58;;;;;;;1.33;0.43;;;11.20;99.90;;;;;;5084470;28;20215;-59
2023/11/05 01:20:25;;;;;;;1.00;0.30;;;11.30;99.90;;;;;;5084202;28;20212;-59
2023/11/05 01:22:52;;;;;;;0.57;0.30;;;11.20;99.90;;;;;;5080970;28;20225;-60
2023/11/05 01:25:19;;;;;;;0.50;0.30;;;11.20;99.90;;;;;;5080961;28;20208;-58
2023/11/05 01:27:46;;;;;;;0.67;0.40;;;11.20;99.90;;;;;;5081121;28;20208;-58
2023/11/05 01:30:14;;;;;;;0.97;0.30;;;11.30;99.90;;;;;;5081004;28;20205;-60
2023/11/05 01:32:41;;;;;;;1.00;0.30;;;11.20;99.90;;;;;;5082846;28;20288;-58
2023/11/05 01:35:08;;;;;;;0.53;0.27;;;11.30;99.90;;;;;;5084622;28;20212;-59
2023/11/05 01:37:35;;;;;;;1.60;0.37;;;11.20;99.90;;;;;;5082622;28;20621;-59
2023/11/05 01:40:02;;;;;;;1.20;0.20;;;11.20;99.90;;;;;;5080817;28;20209;-59
2023/11/05 01:42:29;;;;;;;0.43;0.30;;;11.20;99.90;;;;;;5081105;28;20231;-58
2023/11/05 01:44:56;;;;;;;1.90;0.40;;;11.20;99.90;;;;;;5084216;28;20583;-58
2023/11/05 01:47:23;;;;;;;0.83;0.30;;;11.20;99.90;;;;;;5083954;28;20227;-58
2023/11/05 01:49:50;;;;;;;0.50;0.40;;;11.30;99.90;;;;;;5072328;28;20292;-59
2023/11/05 01:52:19;;;;;;;0.63;0.30;;;11.50;99.90;;;;;;5080287;28;20283;-59
2023/11/05 01:54:46;;;;;;;0.70;0.20;;;11.70;99.90;;;;;;5083417;28;20208;-59
2023/11/05 01:57:13;;;;;;;0.73;0.40;;;11.80;99.90;;;;;;5084026;28;20220;-59
2023/11/05 01:59:40;;;;;;;1.93;0.30;;;11.90;99.90;;;;;;5081355;28;20549;-60
2023/11/05 02:02:08;;;;;;;1.43;0.50;;;11.90;99.90;;;;;;5079887;28;20571;-59
2023/11/05 02:04:36;;;;;;;1.50;0.30;;;11.90;99.90;;;;;;5082000;28;20204;-60
2023/11/05 02:07:03;;;;;;;1.13;0.40;;;12.00;99.90;;;;;;5083875;28;20255;-60
2023/11/05 02:09:31;;;;;;;0.90;0.30;;;12.00;99.90;;;;;;5082716;28;20230;-59
2023/11/05 02:11:58;;;;;;;1.30;0.43;;;12.00;99.90;;;;;;5080049;28;20247;-59
2023/11/05 02:14:25;;;;;;;0.60;0.33;;;12.00;99.90;;;;;;5079765;28;20204;-59
2023/11/05 02:16:52;;;;;;;1.20;0.40;;;12.00;99.90;;;;;;5083149;28;20231;-59
2023/11/05 02:19:18;;;;;;;1.30;0.30;;;12.10;99.90;;;;;;5083491;28;20211;-59
2023/11/05 02:21:49;;;;;;;1.13;0.50;;;12.20;99.90;;;;;;5080157;28;20341;-59
2023/11/05 02:24:17;;;;;;;2.30;0.30;;;12.30;99.90;;;;;;5079630;28;20327;-59
2023/11/05 02:26:55;;;;;;;1.87;0.33;;;12.30;99.90;;;;;;5082306;28;20262;-59
2023/11/05 02:29:22;;;;;;;0.63;0.30;;;12.40;99.90;;;;;;5082726;28;20208;-59
2023/11/05 02:31:48;;;;;;;1.30;0.60;;;12.40;99.90;;;;;;5079584;28;20213;-59
2023/11/05 02:34:15;;;;;;;0.87;0.50;;;12.40;99.90;;;;;;5079583;28;20203;-59
2023/11/05 02:36:43;;;;;;;1.33;0.40;;;12.60;99.90;;;;;;5081836;28;20244;-59
2023/11/05 02:39:11;;;;;;;1.20;0.47;;;12.70;99.90;;;;;;5082778;28;20661;-59
2023/11/05 02:41:38;;;;;;;2.30;0.50;;;12.70;99.90;;;;;;5080990;28;20204;-58
2023/11/05 02:44:06;;;;;;;3.07;0.50;;;12.70;99.90;;;;;;5079536;28;20220;-58
2023/11/05 02:46:33;;;;;;;1.23;0.40;;;12.80;99.90;;;;;;5080270;28;20236;-58
2023/11/05 02:48:59;;;;;;;1.23;0.30;;;12.80;99.90;;;;;;5082825;28;20204;-58
2023/11/05 02:51:26;;;;;;;1.00;0.30;;;12.80;99.90;;;;;;5082864;28;20204;-59
2023/11/05 02:53:53;;;;;;;1.77;0.50;;;12.80;99.90;;;;;;5079086;28;20196;-57
2023/11/05 02:56:20;;;;;;;1.93;0.60;;;12.80;99.90;;;;;;5079426;28;20252;-60
2023/11/05 02:58:48;;;;;;;1.93;0.60;;;12.90;99.90;;;;;;5082156;28;20488;-59
2023/11/05 03:01:23;;;;;;;2.30;0.60;;;12.90;99.90;;;;;;5082792;28;20207;-58
2023/11/05 03:03:50;;;;;;;0.93;0.30;;;12.80;99.90;;;;;;5079049;28;20303;-59
2023/11/05 03:06:17;;;;;;;3.27;0.80;;;12.90;99.90;;;;;;5079153;28;20247;-59
2023/11/05 03:08:44;;;;;;;1.23;0.60;;;12.90;99.90;;;;;;5081293;28;20209;-58
2023/11/05 03:11:10;;;;;;;10.90;0.90;;;12.90;99.90;;;;;;5082436;28;20670;-59
2023/11/05 03:13:37;;;;;;;1.07;0.40;;;12.90;99.90;;;;;;5080865;28;20224;-58
2023/11/05 03:16:08;;;;;;;1.13;0.50;;;12.80;99.90;;;;;;5079014;28;20274;-58
2023/11/05 03:18:34;;;;;;;2.23;0.67;;;12.80;99.90;;;;;;5080322;28;20213;-59
2023/11/05 03:21:01;;;;;;;1.93;0.70;;;12.80;99.90;;;;;;5082658;28;20200;-59
2023/11/05 03:23:28;;;;;;;3.03;0.93;;;12.80;99.90;;;;;;5081851;28;20220;-59
2023/11/05 03:25:54;;;;;;;3.23;0.70;;;12.80;99.90;;;;;;5079028;28;20281;-58
2023/11/05 03:28:21;;;;;;;5.03;0.70;;;12.80;99.90;;;;;;5078905;28;20212;-58
2023/11/05 03:30:48;;;;;;;2.47;1.10;;;12.80;99.90;;;;;;5081702;28;20201;-59
2023/11/05 03:33:16;;;;;;;2.13;0.60;;;12.90;99.90;;;;;;5082200;28;20669;-59
2023/11/05 03:35:43;;;;;;;2.53;0.53;;;13.00;99.90;;;;;;5079760;28;20643;-59
2023/11/05 03:38:10;;;;;;;2.47;0.80;;;12.90;99.90;;;;;;5079121;28;20209;-58
2023/11/05 03:40:36;;;;;;;2.73;0.87;;;12.90;99.90;;;;;;5082145;28;20208;-58
2023/11/05 03:43:03;;;;;;;1.70;0.77;;;12.90;99.90;;;;;;5086372;28;20220;-59
2023/11/05 03:45:30;;;;;;;1.27;0.63;;;12.80;99.90;;;;;;5085498;28;20614;-58
2023/11/05 03:47:57;;;;;;;2.87;0.83;;;12.90;99.90;;;;;;5082649;28;20581;-59
2023/11/05 03:50:25;;;;;;;1.63;0.80;;;12.90;99.90;;;;;;5082971;28;20576;-58
2023/11/05 03:52:51;;;;;;;3.37;0.77;;;12.80;99.90;;;;;;5086038;28;20204;-59
2023/11/05 03:55:18;;;;;;;2.50;0.90;;;12.80;99.90;;;;;;5085922;28;20200;-58
2023/11/05 03:57:45;;;;;;;1.73;0.83;;;12.70;99.90;;;;;;5083463;28;20307;-59
2023/11/05 04:00:12;;;;;;;3.77;1.23;;;12.70;99.90;;;;;;5082329;28;20216;-59
2023/11/05 04:02:39;;;;;;;3.10;0.70;;;12.60;99.90;;;;;;5083718;28;20201;-59
2023/11/05 04:05:06;;;;;;;3.30;0.60;;;12.70;99.90;;;;;;5085755;28;20204;-59
2023/11/05 04:07:34;;;;;;;1.27;0.37;;;12.60;99.90;;;;;;5084850;28;20211;-59
2023/11/05 04:10:01;;;;;;;2.33;0.50;;;12.70;99.90;;;;;;5082338;28;20212;-58
2023/11/05 04:12:28;;;;;;;2.37;0.83;;;12.70;99.90;;;;;;5082120;28;20201;-59
2023/11/05 04:14:54;;;;;;;2.97;0.90;;;12.70;99.90;;;;;;5074083;28;20201;-59
2023/11/05 04:17:21;;;;;;;1.47;0.60;;;12.60;99.90;;;;;;5082194;28;20225;-59
2023/11/05 04:19:48;;;;;;;3.03;0.73;;;12.70;99.90;;;;;;5084867;28;20584;-59
2023/11/05 04:22:15;;;;;;;2.93;0.80;;;12.60;99.90;;;;;;5085499;28;20197;-59
2023/11/05 04:24:43;;;;;;;2.93;0.77;;;12.70;99.90;;;;;;5083863;28;20220;-59
2023/11/05 04:27:09;;;;;;;2.00;0.80;;;12.60;99.90;;;;;;5082007;28;20235;-59
2023/11/05 04:29:36;;;;;;;1.40;0.60;;;12.70;99.90;;;;;;5082763;28;20217;-58
2023/11/05 04:32:03;;;;;;;2.57;0.67;;;12.60;99.90;;;;;;5085096;28;20200;-60
2023/11/05 04:34:32;;;;;;;2.00;0.57;;;12.70;99.90;;;;;;5085253;28;20202;-59
2023/11/05 04:37:00;;;;;;;1.77;0.60;;;12.70;99.90;;;;;;5081875;28;20259;-59
2023/11/05 04:39:27;;;;;;;4.70;1.00;;;12.90;99.90;;;;;;5081805;28;20201;-59
2023/11/05 04:41:55;;;;;;;2.20;0.80;;;13.00;99.90;;;;;;5085037;28;20200;-59
2023/11/05 04:44:22;;;;;;;2.80;0.70;;;13.00;99.90;;;;;;5084866;28;20217;-59
2023/11/05 04:46:48;;;;;;;3.53;0.80;;;13.10;99.90;;;;;;5082140;28;20259;-59
2023/11/05 04:49:14;;;;;;;1.33;0.70;;;13.10;99.90;;;;;;5081753;28;20205;-59
2023/11/05 04:51:42;;;;;;;2.83;0.90;;;13.20;99.90;;;;;;5082512;28;20466;-59
2023/11/05 04:54:09;;;;;;;2.90;0.83;;;13.40;99.90;;;;;;5085282;28;20224;-59
2023/11/05 04:56:35;;;;;;;4.60;1.10;;;13.40;99.90;;;;;;5083917;28;20220;-59
2023/11/05 04:59:04;;;;;;;3.67;0.87;;;13.50;99.90;;;;;;5081054;28;20338;-59
2023/11/05 05:01:30;;;;;;;3.60;0.80;;;13.60;99.90;;;;;;5081537;28;20291;-58
2023/11/05 05:03:57;;;;;;;3.60;1.43;;;13.50;99.90;;;;;;5084627;28;20216;-59
2023/11/05 05:06:23;;;;;;;3.70;0.90;;;13.50;99.90;;;;;;5084758;28;20227;-60
2023/11/05 05:08:50;;;;;;;3.10;1.20;;;13.70;99.90;;;;;;5081531;28;20683;-59
2023/11/05 05:11:17;;;;;;;2.57;1.00;;;13.70;99.90;;;;;;5081081;28;20205;-59
2023/11/05 05:13:44;;;;;;;1.50;0.80;;;13.80;99.90;;;;;;5082654;28;20255;-59
2023/11/05 05:16:12;;;;;;;3.13;0.80;;;13.80;99.90;;;;;;5084396;28;20235;-59
2023/11/05 05:18:40;;;;;;;1.97;0.73;;;13.90;99.90;;;;;;5082866;28;20721;-59
2023/11/05 05:21:07;;;;;;;2.60;0.73;;;13.80;99.90;;;;;;5081042;28;20201;-59
2023/11/05 05:23:34;;;;;;;3.00;1.00;;;13.90;99.90;;;;;;5081189;28;20373;-59
2023/11/05 05:26:02;;;;;;;2.10;1.10;;;13.90;99.90;;;;;;5084126;28;20274;-59
2023/11/05 05:28:29;;;;;;;2.43;1.03;;;13.80;99.90;;;;;;5084114;28;20257;-59
2023/11/05 05:30:56;;;;;;;4.50;1.60;;;13.70;99.90;;;;;;5084407;28;20208;-59
2023/11/05 05:33:24;;;;;;;3.03;1.00;;;13.70;99.90;;;;;;5084126;28;20204;-58
2023/11/05 05:35:50;;;;;;;1.70;0.97;;;13.50;99.90;;;;;;5081034;28;20229;-58
2023/11/05 05:38:17;;;;;;;0.90;0.70;;;13.50;99.90;;;;;;5080535;28;20201;-59
2023/11/05 05:40:44;;;;;;;3.63;1.27;;;13.40;99.90;;;;;;5082155;28;20231;-60
2023/11/05 05:43:11;;;;;;;2.80;1.20;;;13.40;99.90;;;;;;5083991;28;20205;-59
2023/11/05 05:45:37;;;;;;;1.70;0.90;;;13.30;99.90;;;;;;5082811;28;20593;-60
2023/11/05 05:48:04;;;;;;;3.50;1.30;;;13.40;99.90;;;;;;5080438;28;20201;-60
2023/11/05 05:50:32;;;;;;;3.37;1.10;;;13.30;99.90;;;;;;5080313;28;20203;-60
2023/11/05 05:52:59;;;;;;;3.67;1.00;;;13.30;99.90;;;;;;5083584;28;20585;-59
2023/11/05 05:55:25;;;;;;;2.03;0.70;;;13.20;99.90;;;;;;5083710;28;20598;-59
2023/11/05 05:57:52;;;;;;;3.03;0.80;;;13.10;99.90;;;;;;5080528;28;20670;-58
2023/11/05 06:00:21;;;;;;;3.90;1.10;;;13.10;99.90;;;;;;5080203;28;20205;-59
2023/11/05 06:02:48;;;;;;;2.73;0.80;;;13.10;99.90;;;;;;5082099;28;20208;-61
2023/11/05 06:05:15;;;;;;;1.17;0.87;;;13.10;99.90;;;;;;5082771;28;20220;-60
2023/11/05 06:07:43;;;;;;;2.77;1.30;;;13.20;99.90;;;;;;5082237;28;20203;-60
2023/11/05 06:10:11;;;;;;;1.23;0.50;;;13.20;99.90;;;;;;5080142;28;20205;-60
2023/11/05 06:12:38;;;;;;;1.57;0.90;;;13.10;99.90;;;;;;5080655;28;20287;-60
2023/11/05 06:15:07;;;;;;;2.90;1.67;;;13.20;99.90;;;;;;5083441;28;20200;-59
2023/11/05 06:17:33;;;;;;;3.40;1.83;;;13.20;99.90;;;;;;5083263;28;20215;-61
2023/11/05 06:20:00;;;;;;;2.83;1.23;;;13.10;99.90;;;;;;5079960;28;20205;-60
2023/11/05 06:22:27;;;;;;;1.63;0.90;;;13.10;99.90;;;;;;5079500;28;20674;-60
2023/11/05 06:24:55;;;;;;;1.27;0.73;;;13.00;99.90;;;;;;5082715;28;20599;-61
2023/11/05 06:27:22;;;;;;;3.60;1.30;;;13.00;99.90;;;;;;5083489;28;20311;-60
2023/11/05 06:29:49;;;;;;;2.10;0.80;;;13.10;99.90;;;;;;5080745;28;20630;-60
2023/11/05 06:32:16;;;;;;;1.70;0.90;;;13.20;99.90;;;;;;5079450;28;20602;-60
2023/11/05 06:34:43;;;;;;;0.93;0.50;;;13.10;99.90;;;;;;5080920;28;20244;-62
2023/11/05 06:37:10;;;;;;;1.53;0.63;;;13.10;99.90;;;;;;5082937;28;20220;-60
2023/11/05 06:39:36;;;;;;;4.57;1.70;;;13.00;99.90;;;;;;5082386;28;20201;-60
2023/11/05 06:42:05;;;;;;;1.27;0.90;;;13.10;99.90;;;;;;5079510;28;20204;-60
2023/11/05 06:44:32;;;;;;;2.57;0.87;;;13.10;99.90;;;;;;5079479;28;20227;-58
2023/11/05 06:46:58;;;;;;;0.80;0.50;;;13.20;99.90;;;;;;5071349;28;20227;-61
2023/11/05 06:49:25;;;;;;;3.33;0.90;;;13.20;99.90;;;;;;5079259;28;20205;-59
2023/11/05 06:51:52;;;;;;;2.67;1.00;;;13.30;99.90;;;;;;5081936;28;20292;-59
2023/11/05 06:54:19;;;;;;;1.40;0.80;;;13.40;99.90;;;;;;5082991;28;20192;-60
2023/11/05 06:56:45;;;;;;;2.67;0.80;;;13.50;99.90;;;;;;5081068;28;20235;-61
2023/11/05 06:59:13;;;;;;;2.33;0.50;;;13.60;99.90;;;;;;5079249;28;20212;-60
2023/11/05 07:01:40;;;;;;;1.87;0.93;;;13.70;99.90;;;;;;5079831;28;20197;-60
2023/11/05 07:04:07;;;;;;;2.73;1.50;;;13.70;99.90;;;;;;5082527;28;20231;-61
2023/11/05 07:06:33;;;;;;;2.53;0.90;;;13.80;99.90;;;;;;5082725;28;20228;-61
2023/11/05 07:09:00;;;;;;;2.17;1.00;;;14.00;99.90;;;;;;5079120;28;20212;-60
2023/11/05 07:11:29;;;;;;;1.80;0.70;;;14.00;99.90;;;;;;5079182;28;20212;-61
2023/11/05 07:13:55;;;;;;;2.27;0.93;;;14.10;99.90;;;;;;5082055;28;20210;-61
2023/11/05 07:16:23;;;;;;;1.20;0.90;;;14.20;99.90;;;;;;5085732;28;20754;-61
2023/11/05 07:18:50;;;;;;;2.47;0.57;;;14.20;99.90;;;;;;5084220;28;20670;-61
2023/11/05 07:21:17;;;;;;;1.70;0.60;;;14.00;99.90;;;;;;5083286;28;20294;-60
2023/11/05 07:23:43;;;;;;;1.23;0.47;;;13.90;99.90;;;;;;5084290;28;20596;-60
2023/11/05 07:26:11;;;;;;;2.33;0.50;;;13.90;99.90;;;;;;5086634;28;20220;-60
2023/11/05 07:28:38;;;;;;;1.20;0.43;;;14.10;99.90;;;;;;5085622;28;20204;-60
2023/11/05 07:31:05;;;;;;;1.40;0.53;;;14.20;99.90;;;;;;5082644;28;20727;-60
2023/11/05 07:33:34;;;;;;;2.20;1.27;;;14.40;99.90;;;;;;5082461;28;20208;-60
2023/11/05 07:36:01;;;;;;;2.57;1.83;;;14.50;99.90;;;;;;5074793;28;20217;-59
2023/11/05 07:38:28;;;;;;;3.27;2.40;;;14.70;99.90;;;;;;5082769;28;20207;-61
2023/11/05 07:40:55;;;;;;;0.95;0.50;;;14.80;99.90;;;;;;5085553;28;20215;-60
2023/11/05 07:43:22;;;;;;;2.88;0.52;;;15.00;99.90;;;;;;5085766;28;20200;-62
2023/11/05 07:45:48;;;;;;;1.35;0.55;;;15.20;99.90;;;;;;5083628;28;20659;-57
2023/11/05 07:48:15;;;;;;;1.20;0.60;;;15.20;99.90;;;;;;5082626;28;20201;-57
2023/11/05 07:50:44;;;;;;;1.10;0.57;;;15.20;99.90;;;;;;5083712;28;20207;-57
2023/11/05 07:53:10;;;;;;;1.20;0.60;;;15.20;99.90;;;;;;5085850;28;20299;-57
2023/11/05 07:55:37;;;;;;;2.20;0.60;;;15.20;99.90;;;;;;5085343;28;20223;-57
2023/11/05 07:58:04;;;;;;;0.50;0.50;;;15.40;99.90;;;;;;5082503;28;20212;-57
2023/11/05 08:00:31;;;;;;;1.90;1.17;;;15.60;99.90;;;;;;5082492;28;20607;-58
2023/11/05 08:02:58;;;;;;;0.50;0.30;;;15.70;99.90;;;;;;5085542;28;20201;-58
2023/11/05 08:05:24;;;;;;;0.20;0.20;;;16.00;99.90;;;;;;5085746;28;20321;-58
2023/11/05 08:07:53;;;;;;;0.95;0.68;;;16.20;99.90;;;;;;5083349;28;20227;-57
2023/11/05 08:10:19;;;;;;;1.13;0.57;;;16.30;99.90;;;;;;5082181;28;20201;-58
2023/11/05 08:12:47;;;;;;;0.93;0.70;;;16.20;99.90;;;;;;5083365;28;20205;-58
2023/11/05 08:15:14;;;;;;;1.00;0.57;;;16.10;99.90;;;;;;5085558;28;20204;-56
2023/11/05 08:17:39;;;;;;;1.52;0.73;;;16.00;99.90;;;;;;5084735;28;20204;-57
2023/11/05 08:20:11;;;;;;;6.13;4.60;;;15.90;99.90;;;;;;5082107;28;20223;-57
2023/11/05 08:22:41;;;;;;;1.27;0.50;;;15.90;99.90;;;;;;5082025;28;20213;-57
2023/11/05 08:25:10;;;;;;;2.08;0.60;;;15.90;99.90;;;;;;5085287;28;20223;-58
2023/11/05 08:27:37;;;;;;;1.95;0.43;;;15.90;99.90;;;;;;5083986;28;20583;-58
2023/11/05 08:30:04;;;;;;;2.00;1.20;;;16.00;99.90;;;;;;5082012;28;20432;-58
2023/11/05 08:32:31;;;;;;;1.77;0.82;;;16.10;99.90;;;;;;5081547;28;20200;-58
2023/11/05 08:34:57;;;;;;;1.80;0.70;;;16.20;99.90;;;;;;5084541;28;20573;-58
2023/11/05 08:37:24;;;;;;;1.42;0.77;;;16.20;99.90;;;;;;5084980;28;20216;-58
2023/11/05 08:39:51;;;;;;;0.68;0.47;;;16.10;99.90;;;;;;5082713;28;20552;-58
2023/11/05 08:42:19;;;;;;;0.20;0.10;;;15.90;99.90;;;;;;5081106;28;20254;-58
2023/11/05 08:44:45;;;;;;;0.57;0.40;;;15.80;99.90;;;;;;5082745;28;20318;-58
2023/11/05 08:47:12;;;;;;;0.50;0.30;;;15.70;99.90;;;;;;5084981;28;20231;-58
2023/11/05 08:49:40;;;;;;;0.90;0.40;;;15.50;99.90;;;;;;5084279;28;20273;-59
2023/11/05 08:52:07;;;;;;;0.30;0.30;;;15.50;99.90;;;;;;5081012;28;20200;-57
2023/11/05 08:54:33;;;;;;;0.97;0.50;;;15.50;99.90;;;;;;5081731;28;20338;-58
2023/11/05 08:57:00;;;;;;;1.10;0.30;;;15.70;99.90;;;;;;5084640;28;20246;-57
2023/11/05 08:59:29;;;;;;;2.08;0.45;;;15.80;99.90;;;;;;5084883;28;20212;-57
2023/11/05 09:01:55;;;;;;;1.40;0.40;;;15.90;99.90;;;;;;5081963;28;20205;-57
2023/11/05 09:04:23;;;;;;;1.27;0.68;;;16.00;99.90;;;;;;5081078;28;20212;-57
2023/11/05 09:06:50;;;;;;;0.32;0.10;;;16.10;99.90;;;;;;5082797;28;20225;-57
2023/11/05 09:09:16;;;;;;;0.85;0.30;;;16.00;99.90;;;;;;5084409;28;20200;-57
2023/11/05 09:11:43;;;;;;;0.30;0.20;;;16.10;99.90;;;;;;5083431;28;20204;-57
2023/11/05 09:14:10;;;;;;;0.68;0.40;;;16.30;99.90;;;;;;5081156;28;20211;-57
2023/11/05 09:16:38;;;;;;;0.52;0.30;;;16.50;99.90;;;;;;5080916;28;20670;-61
2023/11/05 09:19:05;;;;;;;0.50;0.30;;;16.60;99.90;;;;;;5072845;28;20801;-62
2023/11/05 09:21:31;;;;;;;1.35;0.30;;;16.70;99.90;;;;;;5080735;28;20197;-58
2023/11/05 09:24:00;;;;;;;1.90;0.28;;;16.70;99.90;;;;;;5077316;28;20423;-58
2023/11/05 09:26:26;;;;;;;1.13;0.30;;;16.60;99.90;;;;;;5080724;28;20220;-60
2023/11/05 09:28:53;;;;;;;1.75;0.32;;;16.60;99.90;;;;;;5082864;28;20563;-58
2023/11/05 09:31:21;;;;;;;2.13;0.38;;;16.60;99.90;;;;;;5084143;28;20204;-58
2023/11/05 09:33:49;;;;;;;1.27;0.40;;;16.80;99.90;;;;;;5082719;28;20204;-60
2023/11/05 09:36:15;;;;;;;3.30;0.40;;;16.90;99.90;;;;;;5079819;28;20239;-60
2023/11/05 09:38:42;;;;;;;0.95;0.35;;;17.00;99.90;;;;;;5080890;28;20205;-60
2023/11/05 09:41:09;;;;;;;1.83;0.80;;;17.20;99.90;;;;;;5084023;28;20208;-60
2023/11/05 09:43:36;;;;;;;1.52;0.60;;;17.30;99.90;;;;;;5083770;28;20268;-60
2023/11/05 09:46:04;;;;;;;0.90;0.50;;;17.20;99.90;;;;;;5083695;28;20656;-59
2023/11/05 09:48:31;;;;;;;3.03;0.60;;;17.20;99.90;;;;;;5083451;28;20204;-59
2023/11/05 09:51:01;;;;;;;0.75;0.20;;;17.00;99.90;;;;;;5076226;28;20217;-58
2023/11/05 09:53:29;;;;;;;2.35;0.32;;;17.00;99.90;;;;;;5064769;28;20240;-58
2023/11/05 09:55:56;;;;;;;0.40;0.35;;;17.00;99.90;;;;;;5071536;28;20229;-59
2023/11/05 09:58:23;;;;;;;1.15;0.30;;;17.00;99.90;;;;;;5071502;28;20216;-59
2023/11/05 10:00:51;;;;;;;1.75;0.38;;;17.00;99.90;;;;;;5063174;28;20267;-58
2023/11/05 10:03:18;;;;;;;3.15;0.40;;;17.00;99.90;;;;;;5071270;28;20219;-59
2023/11/05 10:05:46;;;;;;;3.30;0.22;;;17.10;99.90;;;;;;5071463;28;20229;-59
2023/11/05 10:08:14;;;;;;;0.57;0.22;;;17.10;99.90;;;;;;5071720;28;20284;-59
2023/11/05 10:10:43;;;;;;;3.47;0.40;;;17.00;99.90;;;;;;5071167;28;20209;-59
2023/11/05 10:13:12;;;;;;;0.65;0.20;;;16.80;99.90;;;;;;5071736;28;20278;-58
2023/11/05 10:15:40;;;;;;;5.65;4.35;;;16.70;99.90;;;;;;5071431;28;20238;-58
2023/11/05 10:18:07;;;;;;;0.50;0.40;;;16.60;99.90;;;;;;5063841;28;20259;-57
2023/11/05 10:20:49;;;;;;;4.82;0.85;;;16.60;99.90;;;;;;5071789;28;20212;-58
2023/11/05 10:23:17;;;;;;;1.52;0.30;;;16.60;99.90;;;;;;5064483;28;20316;-58
2023/11/05 10:25:47;;;;;;;2.45;0.47;;;16.60;99.90;;;;;;5071214;28;20430;-58
2023/11/05 10:28:14;;;;;;;1.42;0.93;;;16.40;99.90;;;;;;5071022;28;20209;-58
2023/11/05 10:30:45;;;;;;;0.32;0.32;;;16.30;99.90;;;;;;5071272;28;20244;-58
2023/11/05 10:33:12;;;;;;;1.27;0.80;;;16.30;99.90;;;;;;5071143;28;20209;-58
2023/11/05 10:35:40;;;;;;;0.98;0.43;;;16.30;99.90;;;;;;5071008;28;20229;-57
2023/11/05 10:38:08;;;;;;;1.05;0.90;;;16.30;99.90;;;;;;5063506;28;20270;-58
2023/11/05 10:40:37;;;;;;;4.72;0.80;;;16.20;99.90;;;;;;5071039;28;20205;-58
2023/11/05 10:43:06;;;;;;;1.00;0.47;;;16.10;99.90;;;;;;5070409;28;20438;-58
2023/11/05 10:45:33;;;;;;;1.08;0.40;;;16.00;99.90;;;;;;5070654;28;20243;-57
2023/11/05 10:47:59;;;;;;;1.05;0.47;;;15.90;99.90;;;;;;5073920;28;20681;-59
2023/11/05 10:50:28;;;;;;;2.45;0.82;;;15.80;99.90;;;;;;5082537;28;20662;-61
2023/11/05 10:52:58;;;;;;;1.15;0.80;;;15.70;99.90;;;;;;5080543;28;20200;-59
2023/11/05 10:55:32;;;;;;;2.45;0.40;;;15.50;99.90;;;;;;5079347;28;20236;-60
2023/11/05 10:58:02;;;;;;;1.87;0.83;;;15.50;99.90;;;;;;5082212;28;20262;-60
2023/11/05 11:00:46;;;;;;;1.30;0.57;;;15.50;99.90;;;;;;5083200;28;20226;-60
2023/11/05 11:03:14;;;;;;;1.70;0.70;;;15.60;99.90;;;;;;5071852;28;20204;-60
2023/11/05 11:05:59;;;;;;;0.85;0.60;;;15.80;99.90;;;;;;5078969;28;20301;-60
2023/11/05 11:08:29;;;;;;;0.65;0.55;;;15.90;99.90;;;;;;5083026;28;20196;-60
2023/11/05 11:11:16;;;;;;;2.50;0.65;;;15.90;99.90;;;;;;5080852;28;20272;-59
2023/11/05 11:13:54;;;;;;;3.58;1.50;;;15.80;99.90;;;;;;5079325;28;20246;-60
2023/11/05 11:16:26;;;;;;;2.28;0.82;;;15.70;99.90;;;;;;5082375;28;20220;-60
2023/11/05 11:18:54;;;;;;;0.47;0.40;;;15.50;99.90;;;;;;5080907;28;20373;-59
2023/11/05 11:21:21;;;;;;;3.60;1.10;;;15.40;99.90;;;;;;5079252;28;20729;-59
2023/11/05 11:23:49;;;;;;;2.23;0.73;;;15.30;99.90;;;;;;5080237;28;20204;-60
2023/11/05 11:26:24;;;;;;;1.58;0.65;;;15.30;99.90;;;;;;5082388;28;20646;-59
2023/11/05 11:28:58;;;;;;;2.30;0.87;;;15.30;99.90;;;;;;5081006;28;20594;-60
2023/11/05 11:31:26;;;;;;;3.63;1.70;;;15.30;99.90;;;;;;5079083;28;20663;-60
2023/11/05 11:33:53;;;;;;;5.60;1.60;;;15.20;99.90;;;;;;5080497;28;20212;-60
2023/11/05 11:36:20;;;;;;;2.90;1.00;;;15.20;99.90;;;;;;5082637;28;20312;-60
2023/11/05 11:38:47;;;;;;;2.07;0.93;;;15.20;99.90;;;;;;5082502;28;20208;-60
2023/11/05 11:41:14;;;;;;;1.88;1.08;;;15.30;99.90;;;;;;5079406;28;20209;-60
2023/11/05 11:43:41;;;;;;;0.83;0.40;;;15.20;99.90;;;;;;5079003;28;20213;-60
2023/11/05 11:46:09;;;;;;;5.80;2.07;;;15.20;99.90;;;;;;5070796;28;20647;-59
2023/11/05 11:48:36;;;;;;;2.53;1.00;;;15.10;99.90;;;;;;5078977;28;20240;-59
2023/11/05 11:51:06;;;;;;;1.03;0.70;;;15.10;99.90;;;;;;5082444;28;20196;-60
2023/11/05 11:53:34;;;;;;;3.67;1.20;;;15.10;99.90;;;;;;5082873;28;20201;-60
2023/11/05 11:56:02;;;;;;;4.20;1.10;;;15.20;99.90;;;;;;5080405;28;20223;-60
2023/11/05 11:58:29;;;;;;;1.67;0.90;;;15.30;99.90;;;;;;5078995;28;20201;-59
2023/11/05 12:00:58;;;;;;;1.40;0.53;;;15.30;99.90;;;;;;5080753;28;20209;-59
2023/11/05 12:03:27;;;;;;;1.60;0.53;;;15.60;99.90;;;;;;5085198;28;20261;-61
2023/11/05 12:05:54;;;;;;;1.10;0.40;;;15.90;99.90;;;;;;5083997;28;20224;-60
2023/11/05 12:08:41;;;;;;;1.75;0.68;;;16.20;99.90;;;;;;5082783;28;20212;-59
2023/11/05 12:11:09;;;;;;;2.10;0.50;;;16.50;99.90;;;;;;5079082;28;20212;-62
2023/11/05 12:13:38;;;;;;;0.30;0.30;;;16.70;99.90;;;;;;5081568;28;20574;-59
2023/11/05 12:16:08;;;;;;;0.57;0.38;;;16.70;99.90;;;;;;5085091;28;20266;-59
2023/11/05 12:18:36;;;;;;;1.15;0.40;;;16.70;99.90;;;;;;5086309;28;20201;-60
2023/11/05 12:21:03;;;;;;;7.00;5.68;;;16.60;99.90;;;;;;5082819;28;20621;-59
2023/11/05 12:23:30;;;;;;;0.80;0.30;;;16.50;99.90;;;;;;5082171;28;20209;-60
2023/11/05 12:25:59;;;;;;;1.33;0.50;;;16.40;99.90;;;;;;5084155;28;20694;-59
2023/11/05 12:28:26;;;;;;;0.83;0.40;;;16.30;99.90;;;;;;5085719;28;20641;-58
2023/11/05 12:30:52;;;;;;;0.68;0.47;;;16.20;99.90;;;;;;5084028;28;20208;-60
2023/11/05 12:33:22;;;;;;;5.53;3.53;;;16.10;99.90;;;;;;5081247;28;20205;-60
2023/11/05 12:35:51;;;;;;;3.47;2.40;;;15.80;99.90;;;;;;5082384;28;20677;-59
2023/11/05 12:38:18;;;;;;;3.07;1.07;;;15.80;99.90;;;;;;5085221;28;20250;-59
2023/11/05 12:40:45;;;;;;;1.43;0.87;;;15.70;99.90;;;;;;5084970;28;20591;-59
2023/11/05 12:43:11;;;;;;;0.90;0.80;;;15.60;99.90;;;;;;5081378;28;20257;-59
2023/11/05 12:45:38;;;;;;;1.37;0.33;;;15.50;99.90;;;;;;5081554;28;20227;-59
2023/11/05 12:48:06;;;;;;;0.60;0.33;;;15.50;99.90;;;;;;5084014;28;20204;-59
2023/11/05 12:50:33;;;;;;;1.27;0.95;;;15.40;99.90;;;;;;5085190;28;20209;-59